Time;durP1;ratioP1;P1;durP2;ratioP2;P2;SDS_P1;SDS_P2;PMS_P1;PMS_P2;Temp;Humidity;BMP_temperature;BMP_pressure;BME280_temperature;BME280_humidity;BME280_pressure;Samples;Min_cycle;Max_cycle;Signal;HPM_P1;HPM_P2
2023/12/29 00:02:10;;;;;;;;;87.33;69.00;;;;;7.29;54.29;100008.59;5069148;28;9038;-71
2023/12/29 00:04:39;;;;;;;;;78.25;62.50;;;;;7.43;54.25;100019.06;5068224;28;8976;-72
2023/12/29 00:07:08;;;;;;;;;76.75;59.75;;;;;7.47;54.76;100017.31;5074510;28;8848;-71
2023/12/29 00:09:40;;;;;;;;;78.00;61.25;;;;;7.53;54.51;100027.75;5039907;28;8967;-73
2023/12/29 00:12:11;;;;;;;;;76.00;60.50;;;;;7.58;53.78;100015.56;5067955;28;8855;-71
2023/12/29 00:14:41;;;;;;;;;79.25;60.25;;;;;7.59;53.53;100022.56;5048851;28;8856;-73
2023/12/29 00:17:10;;;;;;;;;73.75;58.50;;;;;7.65;53.84;100016.44;5049163;28;8849;-71
2023/12/29 00:19:39;;;;;;;;;75.00;59.75;;;;;7.67;53.90;100018.16;5049103;28;8887;-70
2023/12/29 00:22:08;;;;;;;;;72.75;56.50;;;;;7.70;53.76;100019.91;5049259;28;8833;-73
2023/12/29 00:24:39;;;;;;;;;73.75;59.75;;;;;7.72;53.25;100017.28;5031965;28;8870;-71
2023/12/29 00:27:08;;;;;;;;;71.50;56.50;;;;;7.73;53.04;100012.06;5057738;28;8841;-72
2023/12/29 00:29:40;;;;;;;;;74.00;56.75;;;;;7.80;53.38;100018.16;5063758;28;8825;-71
2023/12/29 00:32:09;;;;;;;;;73.50;58.00;;;;;7.80;52.69;100020.78;5048404;28;8883;-71
2023/12/29 00:34:38;;;;;;;;;75.25;58.50;;;;;7.82;52.62;100017.28;5065141;28;8831;-71
2023/12/29 00:37:08;;;;;;;;;72.00;58.75;;;;;7.84;52.77;100017.28;5066558;28;8891;-70
2023/12/29 00:39:39;;;;;;;;;74.00;58.75;;;;;7.87;52.76;100022.47;5017750;28;8862;-72
2023/12/29 00:42:09;;;;;;;;;66.75;54.50;;;;;7.90;52.64;100022.50;5013823;28;8858;-70
2023/12/29 00:44:39;;;;;;;;;69.25;54.75;;;;;7.72;53.37;100020.78;5049574;28;8854;-72
2023/12/29 00:47:08;;;;;;;;;69.75;55.75;;;;;7.82;52.78;100019.88;5079146;28;8826;-71
2023/12/29 00:49:40;;;;;;;;;72.75;58.25;;;;;7.81;53.08;100012.91;5016841;28;8865;-72
2023/12/29 00:52:09;;;;;;;;;75.00;58.00;;;;;7.87;52.86;100009.41;5049116;28;8825;-72
2023/12/29 00:54:38;;;;;;;;;71.25;56.50;;;;;7.87;52.67;100012.91;5065685;28;9012;-71
2023/12/29 00:57:07;;;;;;;;;68.25;55.00;;;;;7.88;52.32;100017.25;5048948;28;8837;-71
2023/12/29 00:59:39;;;;;;;;;70.25;56.50;;;;;7.91;52.21;100015.50;5065399;28;8852;-72
2023/12/29 01:02:09;;;;;;;;;73.00;58.25;;;;;7.84;52.05;100012.03;5065794;28;8858;-71
2023/12/29 01:04:39;;;;;;;;;70.00;55.50;;;;;7.73;52.84;100017.28;5071874;28;8847;-72
2023/12/29 01:07:08;;;;;;;;;66.75;54.50;;;;;7.80;52.88;100028.63;5052295;28;8923;-70
2023/12/29 01:09:39;;;;;;;;;67.75;55.25;;;;;7.66;52.56;100018.16;5049231;28;9007;-71
2023/12/29 01:12:09;;;;;;;;;72.00;58.25;;;;;7.79;52.53;100025.13;5065305;28;8854;-72
2023/12/29 01:14:39;;;;;;;;;66.50;53.25;;;;;7.80;52.18;100012.94;5065397;28;9599;-72
2023/12/29 01:17:08;;;;;;;;;62.25;50.75;;;;;7.84;52.69;100028.59;5066359;28;8873;-71
2023/12/29 01:19:38;;;;;;;;;62.75;49.75;;;;;7.76;52.87;100019.91;5068769;28;8823;-71
2023/12/29 01:22:08;;;;;;;;;71.00;56.50;;;;;7.64;52.75;100012.94;5035637;28;8940;-71
2023/12/29 01:24:37;;;;;;;;;72.75;56.25;;;;;7.68;52.57;100017.31;5078510;28;8846;-71
2023/12/29 01:27:14;;;;;;;;;65.00;52.75;;;;;7.63;52.80;100012.97;5007752;28;8866;-71
2023/12/29 01:29:44;;;;;;;;;66.67;52.33;;;;;7.70;52.33;100013.81;5046849;28;9406;-70
2023/12/29 01:32:13;;;;;;;;;66.50;53.25;;;;;7.78;52.59;100001.56;5047560;28;8968;-72
2023/12/29 01:34:42;;;;;;;;;68.50;54.75;;;;;7.84;52.32;100001.56;5009201;28;8830;-72
2023/12/29 01:37:11;;;;;;;;;68.00;55.00;;;;;7.88;52.07;99998.94;5047757;28;8896;-72
2023/12/29 01:39:41;;;;;;;;;65.00;53.25;;;;;7.91;51.80;99997.19;5030014;28;8825;-72
2023/12/29 01:42:11;;;;;;;;;62.75;50.50;;;;;7.92;52.15;99996.31;5029139;28;8864;-71
2023/12/29 01:44:41;;;;;;;;;63.25;52.00;;;;;7.66;51.94;99998.13;5009249;28;8947;-71
2023/12/29 01:47:16;;;;;;;;;68.00;54.75;;;;;7.65;52.51;99987.66;5009287;28;8904;-71
2023/12/29 01:49:46;;;;;;;;;68.00;53.25;;;;;7.75;51.72;99984.13;5010638;28;8850;-72
2023/12/29 01:52:18;;;;;;;;;68.00;55.67;;;;;7.50;53.21;99990.31;5029051;28;8975;-71
2023/12/29 01:54:49;;;;;;;;;67.75;54.75;;;;;7.50;53.36;99990.31;5012520;28;8868;-72
2023/12/29 01:57:18;;;;;;;;;71.00;54.50;;;;;7.46;53.42;99990.28;5010443;28;8978;-72
2023/12/29 01:59:48;;;;;;;;;66.25;52.75;;;;;7.47;52.55;99986.78;5012532;28;8848;-72
2023/12/29 02:02:19;;;;;;;;;60.50;49.75;;;;;7.42;53.06;99979.81;4963392;28;8938;-71
2023/12/29 02:04:48;;;;;;;;;61.75;50.00;;;;;7.42;52.86;99978.09;4995887;28;8860;-71
2023/12/29 02:07:18;;;;;;;;;62.25;51.00;;;;;7.50;52.27;99983.31;4980279;28;9603;-71
2023/12/29 02:09:47;;;;;;;;;67.25;54.00;;;;;7.54;52.34;99977.19;4996293;28;8840;-72
2023/12/29 02:12:18;;;;;;;;;58.00;48.75;;;;;7.52;52.17;99978.09;4983729;28;8863;-71
2023/12/29 02:14:49;;;;;;;;;59.25;49.50;;;;;7.52;51.90;99978.09;5012103;28;8847;-71
2023/12/29 02:17:27;;;;;;;;;60.75;49.00;;;;;7.64;52.55;99975.44;4995821;28;9688;-72
2023/12/29 02:19:56;;;;;;;;;60.00;49.00;;;;;7.55;52.16;99971.13;5012240;28;8934;-70
2023/12/29 02:22:25;;;;;;;;;57.50;47.50;;;;;7.66;51.91;99969.34;5039312;28;8860;-71
2023/12/29 02:24:56;;;;;;;;;62.25;50.75;;;;;7.58;51.40;99967.59;5016260;28;8922;-71
2023/12/29 02:27:35;;;;;;;;;58.75;49.00;;;;;7.66;51.49;99958.00;5053064;28;8866;-73
2023/12/29 02:30:11;;;;;;;;;55.75;46.75;;;;;7.60;52.35;99958.00;5086507;28;8838;-71
2023/12/29 02:32:44;;;;;;;;;60.00;48.50;;;;;7.52;52.08;99965.00;5086526;28;8859;-71
2023/12/29 02:35:16;;;;;;;;;56.25;45.50;;;;;7.51;52.06;99956.28;5086373;28;8920;-72
2023/12/29 02:37:45;;;;;;;;;53.50;42.00;;;;;7.43;52.32;99958.03;5086357;28;8877;-71
2023/12/29 02:40:16;;;;;;;;;53.50;44.50;;;;;7.43;52.43;99960.66;5086476;28;8827;-71
2023/12/29 02:42:49;;;;;;;;;57.75;46.50;;;;;7.56;52.35;99951.03;5082852;28;8884;-70
2023/12/29 02:45:19;;;;;;;;;59.25;48.75;;;;;7.58;51.73;99962.38;5070650;28;8881;-70
2023/12/29 02:47:48;;;;;;;;;53.75;44.00;;;;;7.63;51.76;99958.00;5069865;28;8958;-71
2023/12/29 02:50:17;;;;;;;;;57.50;48.00;;;;;7.70;51.17;99956.22;5069238;28;8857;-71
2023/12/29 02:52:47;;;;;;;;;61.25;48.50;;;;;7.75;51.71;99952.72;5069096;28;8901;-70
2023/12/29 02:55:17;;;;;;;;;56.00;43.25;;;;;7.82;51.32;99949.22;5068784;28;9611;-71
2023/12/29 02:57:46;;;;;;;;;59.75;49.50;;;;;7.79;51.03;99941.38;5082935;28;8854;-71
2023/12/29 03:00:16;;;;;;;;;56.00;45.75;;;;;7.88;50.69;99945.72;5085849;28;8854;-71
2023/12/29 03:02:45;;;;;;;;;56.00;46.75;;;;;7.90;51.12;99936.13;5085474;28;8850;-71
2023/12/29 03:05:15;;;;;;;;;49.75;42.25;;;;;7.96;50.86;99938.69;5070237;28;9581;-71
2023/12/29 03:07:44;;;;;;;;;51.50;44.50;;;;;7.96;50.79;99935.22;5067742;28;8852;-71
2023/12/29 03:10:13;;;;;;;;;53.50;41.50;;;;;7.93;50.82;99932.59;5064023;28;8830;-72
2023/12/29 03:12:44;;;;;;;;;55.00;45.00;;;;;7.95;50.36;99938.69;5048738;28;8883;-72
2023/12/29 03:15:13;;;;;;;;;59.75;49.00;;;;;7.83;51.16;99934.38;5067233;28;8856;-72
2023/12/29 03:17:42;;;;;;;;;58.75;48.25;;;;;7.67;51.39;99933.56;5017962;28;9638;-71
2023/12/29 03:20:13;;;;;;;;;53.00;42.00;;;;;7.70;51.43;99933.53;5050702;28;8836;-71
2023/12/29 03:22:42;;;;;;;;;51.75;42.75;;;;;7.75;50.77;99933.56;5050786;28;8831;-71
2023/12/29 03:25:11;;;;;;;;;38.75;34.75;;;;;7.70;51.50;99930.06;5067087;28;8864;-71
2023/12/29 03:27:40;;;;;;;;;43.00;38.25;;;;;7.63;50.89;99924.00;5067409;28;8840;-71
2023/12/29 03:30:12;;;;;;;;;51.40;38.20;;;;;7.75;51.38;99926.56;5049230;28;8839;-71
2023/12/29 03:32:41;;;;;;;;;41.50;37.25;;;;;7.84;50.90;99923.06;4985624;28;8852;-71
2023/12/29 03:35:10;;;;;;;;;37.20;34.40;;;;;7.92;50.12;99916.03;5034126;28;8850;-71
2023/12/29 03:37:39;;;;;;;;;41.60;36.20;;;;;7.97;50.41;99910.78;5066938;28;8909;-71
2023/12/29 03:40:09;;;;;;;;;37.75;34.75;;;;;7.97;50.41;99908.19;5084388;28;8861;-71
2023/12/29 03:42:39;;;;;;;;;39.60;34.00;;;;;8.07;50.49;99907.25;5069659;28;9596;-71
2023/12/29 03:45:10;;;;;;;;;42.25;37.00;;;;;8.05;50.18;99912.47;5066032;28;9607;-72
2023/12/29 03:47:39;;;;;;;;;43.75;39.25;;;;;7.92;50.52;99909.94;5069404;28;8907;-71
2023/12/29 03:50:09;;;;;;;;;50.25;42.25;;;;;7.92;50.64;99905.56;5072181;28;8863;-72
2023/12/29 03:52:38;;;;;;;;;51.75;43.75;;;;;7.82;50.94;99917.81;5013715;28;8857;-70
2023/12/29 03:55:08;;;;;;;;;55.00;44.25;;;;;7.81;50.57;99918.69;5046338;28;8862;-71
2023/12/29 03:57:37;;;;;;;;;43.25;36.00;;;;;7.66;50.59;99914.41;5047171;28;9022;-73
2023/12/29 04:00:08;;;;;;;;;37.20;34.60;;;;;7.86;50.62;99919.53;5030033;28;8846;-70
2023/12/29 04:02:41;;;;;;;;;42.25;37.00;;;;;7.59;51.38;99907.44;5046699;28;8857;-70
2023/12/29 04:05:11;;;;;;;;;42.25;36.25;;;;;7.59;51.91;99920.50;5026459;28;8857;-70
2023/12/29 04:07:41;;;;;;;;;36.80;34.80;;;;;7.79;50.58;99914.34;5026630;28;8868;-71
2023/12/29 04:10:10;;;;;;;;;42.50;38.50;;;;;7.95;50.49;99912.53;5026716;28;8830;-72
2023/12/29 04:12:39;;;;;;;;;55.50;46.75;;;;;7.91;50.20;99911.69;5026751;28;8879;-73
2023/12/29 04:15:10;;;;;;;;;48.50;38.25;;;;;7.75;50.53;99913.47;5018673;28;8834;-71
2023/12/29 04:17:39;;;;;;;;;56.75;45.50;;;;;7.72;50.81;99913.50;5009845;28;9000;-70
2023/12/29 04:20:11;;;;;;;;;55.75;45.75;;;;;7.85;49.78;99912.59;4961937;28;8826;-72
2023/12/29 04:22:40;;;;;;;;;51.50;42.75;;;;;7.88;50.30;99917.78;5012860;28;8991;-71
2023/12/29 04:25:11;;;;;;;;;48.25;40.00;;;;;7.91;50.25;99916.94;5006630;28;8926;-72
2023/12/29 04:27:41;;;;;;;;;42.00;37.75;;;;;8.01;49.45;99916.00;5026286;28;8880;-71
2023/12/29 04:30:11;;;;;;;;;39.75;36.50;;;;;8.00;49.90;99914.25;5027949;28;8824;-71
2023/12/29 04:32:39;;;;;;;;;46.00;39.50;;;;;7.91;49.44;99911.69;5029381;28;8890;-71
2023/12/29 04:35:12;;;;;;;;;45.75;41.00;;;;;8.03;49.48;99916.84;5046394;28;8890;-72
2023/12/29 04:37:42;;;;;;;;;44.75;39.50;;;;;8.06;49.62;99919.47;5045894;28;9049;-71
2023/12/29 04:40:12;;;;;;;;;52.25;43.00;;;;;7.96;49.54;99927.38;5046021;28;8848;-71
2023/12/29 04:42:41;;;;;;;;;43.50;39.75;;;;;7.88;49.62;99930.00;5045673;28;8871;-72
2023/12/29 04:45:11;;;;;;;;;44.75;39.75;;;;;7.95;49.31;99929.13;5044651;28;8859;-72
2023/12/29 04:47:39;;;;;;;;;41.75;37.25;;;;;8.03;49.20;99934.31;5068530;28;8889;-71
2023/12/29 04:50:09;;;;;;;;;47.00;39.25;;;;;8.08;49.20;99929.94;5068021;28;8839;-71
2023/12/29 04:52:38;;;;;;;;;35.75;31.75;;;;;8.05;49.09;99928.19;5068132;28;8842;-71
2023/12/29 04:55:09;;;;;;;;;56.00;45.50;;;;;7.97;49.48;99932.59;5049316;28;8877;-70
2023/12/29 04:57:38;;;;;;;;;46.25;40.50;;;;;7.90;50.04;99936.13;5066728;28;8826;-71
2023/12/29 05:00:08;;;;;;;;;41.00;35.75;;;;;7.87;49.85;99930.88;5024912;28;8883;-71
2023/12/29 05:02:37;;;;;;;;;47.00;39.25;;;;;7.88;49.57;99930.88;5047848;28;8849;-71
2023/12/29 05:05:07;;;;;;;;;33.60;30.60;;;;;7.91;49.48;99937.88;5052599;28;8868;-72
2023/12/29 05:07:35;;;;;;;;;29.00;25.20;;;;;7.93;49.56;99937.84;5032517;28;8858;-72
2023/12/29 05:10:05;;;;;;;;;41.50;36.25;;;;;7.93;49.95;99943.06;5068540;28;8842;-70
2023/12/29 05:12:36;;;;;;;;;28.40;27.00;;;;;7.83;50.54;99943.09;5068142;28;8939;-70
2023/12/29 05:15:07;;;;;;;;;29.60;29.00;;;;;7.77;50.12;99948.34;5063130;28;10087;-70
2023/12/29 05:17:35;;;;;;;;;52.75;43.25;;;;;7.94;49.75;99942.22;5067549;28;8886;-70
2023/12/29 05:20:05;;;;;;;;;42.75;36.50;;;;;7.91;49.72;99943.09;5068012;28;9620;-71
2023/12/29 05:22:34;;;;;;;;;38.75;35.75;;;;;7.92;49.68;99947.44;5033003;28;8862;-71
2023/12/29 05:25:04;;;;;;;;;52.50;41.00;;;;;7.99;49.26;99945.69;5066645;28;8846;-72
2023/12/29 05:27:32;;;;;;;;;44.50;38.75;;;;;8.00;49.50;99950.03;5068004;28;8923;-71
2023/12/29 05:30:06;;;;;;;;;51.75;41.25;;;;;8.02;49.00;99953.50;5065332;28;8983;-71
2023/12/29 05:32:35;;;;;;;;;50.00;42.25;;;;;7.83;50.06;99950.09;5029305;28;8853;-72
2023/12/29 05:35:05;;;;;;;;;47.25;41.00;;;;;7.86;50.03;99948.34;5029238;28;8954;-71
2023/12/29 05:37:34;;;;;;;;;53.75;44.00;;;;;7.85;49.50;99946.63;5052217;28;8854;-72
2023/12/29 05:40:04;;;;;;;;;53.25;44.00;;;;;7.83;50.16;99950.09;5067523;28;8858;-71
2023/12/29 05:42:33;;;;;;;;;3.20;0.00;;;;;7.81;50.45;99944.84;5032882;28;8846;-71
2023/12/29 05:45:03;;;;;;;;;54.00;43.00;;;;;7.83;49.72;99950.09;5032665;28;8955;-72
2023/12/29 05:47:33;;;;;;;;;58.50;47.00;;;;;7.87;49.89;99950.09;5049842;28;9015;-74
2023/12/29 05:50:03;;;;;;;;;42.25;38.75;;;;;7.86;49.46;99943.09;5058031;28;8897;-71
2023/12/29 05:52:32;;;;;;;;;72.75;56.25;;;;;7.88;49.60;99943.97;5049076;28;8850;-71
2023/12/29 05:55:01;;;;;;;;;53.50;44.75;;;;;7.82;49.90;99946.59;5067518;28;8866;-71
2023/12/29 05:57:30;;;;;;;;;36.00;32.00;;;;;7.77;50.63;99939.66;5067415;28;8846;-72
2023/12/29 05:59:59;;;;;;;;;48.50;41.50;;;;;7.58;50.65;99941.44;5065882;28;8846;-72
2023/12/29 06:02:28;;;;;;;;;48.75;41.00;;;;;7.51;51.26;99939.72;5047621;28;8821;-72
2023/12/29 06:04:59;;;;;;;;;47.50;39.75;;;;;7.42;51.69;99938.88;5047136;28;8849;-72
2023/12/29 06:07:28;;;;;;;;;45.75;38.50;;;;;7.52;51.49;99934.47;5067011;28;8870;-73
2023/12/29 06:09:57;;;;;;;;;34.00;32.00;;;;;7.52;51.19;99936.25;5067253;28;8846;-71
2023/12/29 06:12:26;;;;;;;;;32.20;27.80;;;;;7.66;51.55;99937.94;5066462;28;8896;-72
2023/12/29 06:14:55;;;;;;;;;44.50;39.00;;;;;7.68;51.34;99935.31;5066946;28;8858;-72
2023/12/29 06:17:24;;;;;;;;;50.25;41.00;;;;;7.63;51.35;99932.72;5056578;28;8923;-74
2023/12/29 06:19:53;;;;;;;;;55.75;46.25;;;;;7.79;51.00;99936.13;5067267;28;8937;-73
2023/12/29 06:22:24;;;;;;;;;55.75;47.25;;;;;7.71;51.03;99937.91;5067500;28;8862;-72
2023/12/29 06:24:53;;;;;;;;;63.00;51.75;;;;;7.74;50.55;99937.91;5069380;28;8882;-71
2023/12/29 06:27:22;;;;;;;;;54.00;43.50;;;;;7.80;50.98;99937.03;5070890;28;8882;-72
2023/12/29 06:29:51;;;;;;;;;63.50;48.75;;;;;7.73;50.66;99937.91;5018618;28;8905;-72
2023/12/29 06:32:20;;;;;;;;;65.75;53.75;;;;;7.69;50.36;99934.44;5057140;28;9526;-73
2023/12/29 06:34:49;;;;;;;;;57.75;48.25;;;;;7.78;50.26;99937.03;5083359;28;8823;-72
2023/12/29 06:37:18;;;;;;;;;52.00;44.00;;;;;7.79;50.11;99937.91;5069542;28;8865;-72
2023/12/29 06:39:49;;;;;;;;;42.25;37.75;;;;;7.79;50.93;99932.66;5069777;28;8834;-72
2023/12/29 06:42:18;;;;;;;;;53.00;45.33;;;;;7.80;50.87;99940.50;5070429;28;8869;-73
2023/12/29 06:44:47;;;;;;;;;57.25;47.00;;;;;7.80;50.74;99947.50;5070187;28;8854;-72
2023/12/29 06:47:16;;;;;;;;;40.00;37.25;;;;;7.92;50.14;99942.22;5061382;28;8879;-73
2023/12/29 06:49:45;;;;;;;;;45.00;38.50;;;;;8.01;50.09;99946.56;5064005;28;9608;-73
2023/12/29 06:52:14;;;;;;;;;40.25;36.50;;;;;8.02;49.82;99943.94;5070238;28;8941;-72
2023/12/29 06:54:44;;;;;;;;;55.50;46.50;;;;;8.24;49.47;99942.06;5070414;28;8858;-73
2023/12/29 06:57:16;;;;;;;;;53.75;44.75;;;;;8.28;49.33;99940.31;5070062;28;8955;-72
2023/12/29 06:59:45;;;;;;;;;53.50;44.75;;;;;8.40;49.36;99942.00;5068926;28;8854;-73
2023/12/29 07:02:14;;;;;;;;;56.25;46.00;;;;;8.42;49.32;99938.53;5059794;28;8852;-73
2023/12/29 07:04:43;;;;;;;;;60.50;49.25;;;;;8.34;49.28;99937.69;5062965;28;8885;-72
2023/12/29 07:07:12;;;;;;;;;60.00;49.75;;;;;8.37;49.37;99931.56;5069322;28;9644;-73
2023/12/29 07:09:42;;;;;;;;;44.50;37.25;;;;;8.42;49.13;99938.53;5027140;28;8841;-75
2023/12/29 07:12:11;;;;;;;;;56.75;47.25;;;;;8.51;48.88;99944.56;5027206;28;8877;-72
2023/12/29 07:14:43;;;;;;;;;61.00;50.75;;;;;8.76;48.99;99938.31;5027301;28;8991;-70
2023/12/29 07:17:12;;;;;;;;;61.25;50.00;;;;;8.89;48.46;99939.06;5024822;28;9051;-72
2023/12/29 07:19:41;;;;;;;;;70.75;55.75;;;;;9.02;47.99;99948.56;5026929;28;8864;-72
2023/12/29 07:22:10;;;;;;;;;52.25;41.00;;;;;9.19;47.68;99942.31;5009547;28;8979;-71
2023/12/29 07:24:40;;;;;;;;;66.75;52.50;;;;;9.30;47.23;99944.84;5026288;28;8865;-74
2023/12/29 07:27:09;;;;;;;;;64.25;53.00;;;;;9.41;47.06;99948.25;5026129;28;8874;-72
2023/12/29 07:29:38;;;;;;;;;60.75;51.00;;;;;9.47;46.76;99944.69;5026738;28;8876;-73
2023/12/29 07:32:09;;;;;;;;;64.75;52.00;;;;;9.10;47.18;99950.25;5024213;28;8904;-74
2023/12/29 07:34:38;;;;;;;;;61.25;48.50;;;;;8.88;47.71;99952.22;4997501;28;8918;-74
2023/12/29 07:37:07;;;;;;;;;60.75;48.75;;;;;8.92;47.28;99953.91;5026808;28;8995;-68
2023/12/29 07:39:37;;;;;;;;;66.00;53.50;;;;;9.10;47.43;99950.25;5027018;28;8860;-70
2023/12/29 07:42:07;;;;;;;;;40.50;34.50;;;;;9.26;47.09;99954.50;5025965;28;8849;-70
2023/12/29 07:44:36;;;;;;;;;72.75;55.75;;;;;9.24;47.12;99945.78;5039225;28;9550;-72
2023/12/29 07:47:05;;;;;;;;;70.25;56.00;;;;;9.23;47.05;99944.03;5041790;28;8866;-73
2023/12/29 07:49:36;;;;;;;;;67.75;54.75;;;;;9.20;47.12;99944.06;5069151;28;8854;-74
2023/12/29 07:52:05;;;;;;;;;66.50;53.00;;;;;9.22;46.53;99937.06;5068575;28;8869;-71
2023/12/29 07:54:34;;;;;;;;;67.00;51.75;;;;;9.22;47.21;99952.78;5067414;28;8854;-72
2023/12/29 07:57:04;;;;;;;;;59.50;48.50;;;;;9.28;46.64;99955.34;5069116;28;8886;-71
2023/12/29 07:59:33;;;;;;;;;57.50;48.00;;;;;9.27;46.81;99955.34;5034446;28;8831;-72
2023/12/29 08:02:02;;;;;;;;;61.00;48.75;;;;;9.51;46.27;99951.63;5033638;28;8854;-73
2023/12/29 08:04:32;;;;;;;;;65.00;50.25;;;;;9.55;46.31;99958.59;5033222;28;9244;-72
2023/12/29 08:07:02;;;;;;;;;63.50;52.50;;;;;9.71;45.90;99960.22;5050858;28;8917;-72
2023/12/29 08:09:32;;;;;;;;;65.00;51.25;;;;;9.82;46.09;99962.72;5069087;28;8838;-73
2023/12/29 08:12:01;;;;;;;;;63.00;51.25;;;;;9.96;45.59;99962.56;5068984;28;8850;-72
2023/12/29 08:14:30;;;;;;;;;71.50;56.00;;;;;9.73;45.69;99966.31;5067554;28;8854;-73
2023/12/29 08:16:59;;;;;;;;;68.00;54.25;;;;;9.88;45.51;99973.16;5048849;28;8849;-71
2023/12/29 08:19:28;;;;;;;;;69.75;56.00;;;;;9.89;45.43;99972.25;5018436;28;9664;-72
2023/12/29 08:21:57;;;;;;;;;70.75;56.75;;;;;10.00;45.88;99974.75;5068000;28;8869;-71
2023/12/29 08:24:28;;;;;;;;;68.50;54.00;;;;;10.15;45.53;99981.59;5068887;28;8994;-72
2023/12/29 08:26:57;;;;;;;;;70.25;55.50;;;;;10.31;45.48;99975.28;5068632;28;8858;-73
2023/12/29 08:29:26;;;;;;;;;72.00;57.00;;;;;10.48;45.26;99985.56;5068399;28;8885;-73
2023/12/29 08:31:55;;;;;;;;;71.25;56.00;;;;;10.59;45.18;99981.03;5045978;28;8881;-73
2023/12/29 08:34:24;;;;;;;;;69.25;56.50;;;;;10.66;44.93;99983.56;5052451;28;8814;-73
2023/12/29 08:36:56;;;;;;;;;67.75;53.25;;;;;10.73;44.49;99985.22;5068512;28;8953;-72
2023/12/29 08:39:25;;;;;;;;;63.25;51.25;;;;;10.77;45.15;99990.44;5068170;28;8927;-72
2023/12/29 08:41:55;;;;;;;;;60.50;49.25;;;;;10.85;44.83;99986.81;5067989;28;9070;-72
2023/12/29 08:44:25;;;;;;;;;60.75;50.25;;;;;10.89;44.67;99992.00;5068340;28;8823;-72
2023/12/29 08:46:53;;;;;;;;;63.00;50.50;;;;;10.95;45.07;99989.28;5065721;28;8870;-72
2023/12/29 08:49:22;;;;;;;;;62.00;49.75;;;;;10.99;44.84;99990.09;5068195;28;8976;-72
2023/12/29 08:51:51;;;;;;;;;61.50;49.75;;;;;11.03;44.54;99994.44;5059322;28;8858;-72
2023/12/29 08:54:21;;;;;;;;;64.25;52.25;;;;;10.91;44.57;99990.22;5067607;28;8935;-72
2023/12/29 08:56:49;;;;;;;;;60.50;49.75;;;;;10.90;44.52;99985.84;5067952;28;9747;-71
2023/12/29 08:59:20;;;;;;;;;62.00;50.25;;;;;10.96;44.39;99993.66;5067957;28;9047;-71
2023/12/29 09:01:49;;;;;;;;;63.25;51.00;;;;;11.00;44.49;99988.34;5053873;28;8843;-74
2023/12/29 09:04:18;;;;;;;;;60.00;49.00;;;;;11.03;44.32;99980.38;5067880;28;8862;-72
2023/12/29 09:06:47;;;;;;;;;59.25;48.75;;;;;11.03;44.32;99994.44;5063118;28;9572;-72
2023/12/29 09:09:16;;;;;;;;;53.50;45.00;;;;;11.13;44.74;99982.00;5066694;28;8901;-73
2023/12/29 09:11:47;;;;;;;;;63.25;51.75;;;;;11.14;44.04;99979.34;5028516;28;8962;-72
2023/12/29 09:14:16;;;;;;;;;64.25;51.00;;;;;11.05;44.50;99970.72;5059192;28;9592;-73
2023/12/29 09:16:47;;;;;;;;;64.25;52.25;;;;;11.03;45.01;99964.59;5065882;28;9030;-73
2023/12/29 09:19:16;;;;;;;;;61.25;50.00;;;;;10.83;45.25;99973.69;5067620;28;8859;-72
2023/12/29 09:21:59;;;;;;;;;62.25;50.25;;;;;10.73;45.92;99966.81;5066717;28;9005;-73
2023/12/29 09:24:28;;;;;;;;;61.50;50.00;;;;;10.58;45.93;99962.63;5055231;28;8857;-73
2023/12/29 09:26:57;;;;;;;;;58.00;47.50;;;;;10.60;45.92;99966.09;5066457;28;8881;-72
2023/12/29 09:29:26;;;;;;;;;65.50;51.50;;;;;10.36;46.79;99965.53;5081711;28;8889;-74
2023/12/29 09:31:56;;;;;;;;;65.00;51.50;;;;;10.36;46.77;99962.91;5049514;28;8852;-73
2023/12/29 09:34:26;;;;;;;;;63.00;51.50;;;;;10.47;46.73;99960.16;5013598;28;8900;-72
2023/12/29 09:36:55;;;;;;;;;51.75;42.75;;;;;10.35;46.29;99960.34;5067322;28;8955;-72
2023/12/29 09:39:24;;;;;;;;;54.25;43.75;;;;;10.31;46.33;99961.25;5067699;28;8842;-72
2023/12/29 09:41:56;;;;;;;;;43.75;38.50;;;;;10.39;46.23;99954.16;5067401;28;8862;-73
2023/12/29 09:44:28;;;;;;;;;50.25;41.50;;;;;10.39;46.43;99941.88;5067470;28;8874;-71
2023/12/29 09:47:03;;;;;;;;;51.75;43.00;;;;;10.47;46.46;99946.16;5066605;28;8980;-72
2023/12/29 09:49:39;;;;;;;;;50.50;41.75;;;;;10.71;45.58;99948.41;5048813;28;8858;-72
2023/12/29 09:52:10;;;;;;;;;48.50;41.25;;;;;10.87;45.29;99935.06;5067410;28;8861;-73
2023/12/29 09:54:41;;;;;;;;;48.25;41.00;;;;;10.76;45.74;99933.47;5066307;28;8850;-73
2023/12/29 09:57:10;;;;;;;;;45.75;38.75;;;;;10.83;45.34;99934.25;5067027;28;8867;-72
2023/12/29 09:59:42;;;;;;;;;44.75;36.00;;;;;11.12;45.20;99925.00;5068229;28;8943;-72
2023/12/29 10:02:15;;;;;;;;;38.00;35.25;;;;;11.21;44.27;99921.34;5060167;28;8853;-72
2023/12/29 10:04:45;;;;;;;;;36.25;34.25;;;;;11.07;44.16;99919.81;5087031;28;8846;-72
2023/12/29 10:07:19;;;;;;;;;39.80;36.00;;;;;11.25;44.69;99921.25;5071242;28;8866;-72
2023/12/29 10:09:53;;;;;;;;;37.60;34.60;;;;;11.43;43.88;99919.22;5070788;28;8835;-72
2023/12/29 10:12:25;;;;;;;;;39.60;32.60;;;;;11.55;43.15;99913.69;5086439;28;8892;-74
2023/12/29 10:15:08;;;;;;;;;35.20;29.60;;;;;11.69;42.62;99913.41;5070297;28;8834;-74
2023/12/29 10:18:02;;;;;;;;;35.00;32.00;;;;;11.86;42.53;99906.09;5070983;28;8888;-71
2023/12/29 10:20:42;;;;;;;;;30.20;28.40;;;;;11.86;42.63;99911.38;5021721;28;8815;-71
2023/12/29 10:23:14;;;;;;;;;32.00;30.40;;;;;11.86;42.78;99898.19;5047766;28;9666;-72
2023/12/29 10:25:43;;;;;;;;;32.60;30.00;;;;;11.95;41.84;99902.38;5042181;28;8856;-74
2023/12/29 10:28:14;;;;;;;;;23.40;22.20;;;;;12.10;42.08;99888.88;5047269;28;9052;-74
2023/12/29 10:30:43;;;;;;;;;28.80;26.00;;;;;12.27;41.81;99895.56;4998704;28;8870;-72
2023/12/29 10:33:21;;;;;;;;;30.80;27.80;;;;;12.44;41.56;99880.22;5048109;28;8870;-74
2023/12/29 10:36:02;;;;;;;;;25.20;23.40;;;;;12.17;40.30;99883.50;5047731;28;8827;-72
2023/12/29 10:38:32;;;;;;;;;36.00;33.20;;;;;12.40;40.59;99872.44;5048222;28;8900;-71
2023/12/29 10:41:14;;;;;;;;;28.60;28.60;;;;;12.47;40.27;99874.88;5047470;28;8858;-72
2023/12/29 10:43:47;;;;;;;;;26.00;26.00;;;;;12.57;40.84;99867.63;5035215;28;8855;-71
2023/12/29 10:46:16;;;;;;;;;25.20;24.20;;;;;12.48;39.84;99871.31;5047364;28;9682;-71
2023/12/29 10:48:46;;;;;;;;;28.00;25.20;;;;;12.63;40.80;99866.59;5047823;28;9016;-72
2023/12/29 10:51:16;;;;;;;;;23.80;22.80;;;;;12.66;40.07;99863.91;5054185;28;8843;-72
2023/12/29 10:53:56;;;;;;;;;30.40;25.20;;;;;13.00;39.94;99863.94;5019330;28;8838;-70
2023/12/29 10:56:26;;;;;;;;;24.80;24.80;;;;;13.10;39.17;99861.94;5070310;28;8842;-72
2023/12/29 10:59:00;;;;;;;;;23.20;21.40;;;;;12.93;38.90;99857.09;5070257;28;8947;-72
2023/12/29 11:01:29;;;;;;;;;24.80;23.80;;;;;13.05;39.44;99859.44;5066141;28;8821;-71
2023/12/29 11:04:01;;;;;;;;;28.00;27.20;;;;;13.29;39.04;99854.38;5069414;28;8870;-72
2023/12/29 11:06:40;;;;;;;;;29.00;28.60;;;;;13.30;39.49;99846.44;5070125;28;8854;-74
2023/12/29 11:09:11;;;;;;;;;29.60;29.00;;;;;13.47;38.95;99839.81;5068830;28;8978;-77
2023/12/29 11:11:40;;;;;;;;;26.00;26.00;;;;;13.51;38.50;99836.19;5069569;28;8851;-73
2023/12/29 11:14:12;;;;;;;;;28.80;24.60;;;;;13.48;38.85;99829.19;5070017;28;8980;-75
2023/12/29 11:16:44;;;;;;;;;25.80;22.80;;;;;13.61;38.63;99831.50;5069399;28;8827;-72
2023/12/29 11:19:16;;;;;;;;;30.80;27.80;;;;;13.49;38.59;99823.00;5050923;28;8888;-70
2023/12/29 11:21:46;;;;;;;;;28.20;24.20;;;;;13.61;38.11;99826.22;5069408;28;8873;-73
2023/12/29 11:24:16;;;;;;;;;32.20;29.80;;;;;13.42;38.37;99820.59;5069909;28;8888;-71
2023/12/29 11:26:56;;;;;;;;;34.25;32.25;;;;;13.36;38.80;99828.69;5069445;28;8862;-73
2023/12/29 11:29:25;;;;;;;;;26.40;26.40;;;;;13.47;38.21;99823.97;5051081;28;8862;-72
2023/12/29 11:31:57;;;;;;;;;30.60;30.40;;;;;13.57;38.08;99811.38;5068220;28;8877;-72
2023/12/29 11:34:36;;;;;;;;;30.40;28.00;;;;;13.64;37.91;99816.41;5069314;28;8968;-72
2023/12/29 11:37:17;;;;;;;;;26.00;24.40;;;;;13.74;37.94;99809.09;5069589;28;8862;-75
2023/12/29 11:39:53;;;;;;;;;27.20;26.00;;;;;13.70;38.36;99816.22;5069326;28;8909;-73
2023/12/29 11:42:30;;;;;;;;;27.40;27.40;;;;;13.61;37.61;99807.72;5069672;28;8866;-73
2023/12/29 11:45:12;;;;;;;;;27.40;24.80;;;;;13.38;38.00;99811.03;5069043;28;8846;-72